createdAt,value
2022-12-13T00:02:03.396Z,-5.70
2022-12-13T00:04:31.976Z,-5.80
2022-12-13T00:07:00.426Z,-5.80
2022-12-13T00:09:28.713Z,-5.80
2022-12-13T00:11:57.106Z,-5.90
2022-12-13T00:14:25.435Z,-5.90
2022-12-13T00:16:55.148Z,-5.90
2022-12-13T00:19:23.465Z,-5.90
2022-12-13T00:21:51.942Z,-5.90
2022-12-13T00:24:20.400Z,-6.00
2022-12-13T00:26:48.835Z,-6.00
2022-12-13T00:29:17.436Z,-6.00
2022-12-13T00:32:01.461Z,-6.10
2022-12-13T00:34:31.444Z,-6.00
2022-12-13T00:37:00.320Z,-6.00
2022-12-13T00:39:29.332Z,-6.00
2022-12-13T00:41:57.685Z,-6.00
2022-12-13T00:44:26.259Z,-6.00
2022-12-13T00:46:54.765Z,-6.00
2022-12-13T00:49:23.165Z,-6.00
2022-12-13T00:51:53.040Z,-5.90
2022-12-13T00:54:21.356Z,-6.00
2022-12-13T00:56:51.316Z,-6.00
2022-12-13T00:59:19.705Z,-6.00
2022-12-13T01:01:48.228Z,-6.10
2022-12-13T01:04:16.597Z,-6.10
2022-12-13T01:06:46.643Z,-6.10
2022-12-13T01:09:19.669Z,-6.10
2022-12-13T01:11:49.065Z,-6.20
2022-12-13T01:14:18.201Z,-6.20
2022-12-13T01:16:46.978Z,-6.30
2022-12-13T01:19:15.365Z,-6.30
2022-12-13T01:21:43.672Z,-6.30
2022-12-13T01:24:12.340Z,-6.30
2022-12-13T01:26:42.177Z,-6.40
2022-12-13T01:29:11.632Z,-6.40
2022-12-13T01:31:41.810Z,-6.30
2022-12-13T01:34:13.064Z,-6.30
2022-12-13T01:36:42.016Z,-6.30
2022-12-13T01:39:15.276Z,-6.40
2022-12-13T01:41:46.964Z,-6.40
2022-12-13T01:44:52.766Z,-6.50
2022-12-13T01:47:25.898Z,-6.50
2022-12-13T01:49:57.969Z,-6.50
2022-12-13T01:52:31.456Z,-6.50
2022-12-13T01:55:15.476Z,-6.50
2022-12-13T01:57:49.195Z,-6.60
2022-12-13T02:00:18.275Z,-6.60
2022-12-13T02:02:48.095Z,-6.60
2022-12-13T02:05:23.761Z,-6.60
2022-12-13T02:07:53.331Z,-6.60
2022-12-13T02:10:21.917Z,-6.60
2022-12-13T02:12:52.035Z,-6.60
2022-12-13T02:15:21.686Z,-6.60
2022-12-13T02:18:12.975Z,-6.70
2022-12-13T02:21:14.865Z,-6.70
2022-12-13T02:24:12.729Z,-6.70
2022-12-13T02:27:30.137Z,-6.70
2022-12-13T02:30:23.323Z,-6.70
2022-12-13T02:33:12.930Z,-6.80
2022-12-13T02:35:54.909Z,-6.70
2022-12-13T02:38:29.011Z,-6.60
2022-12-13T02:41:04.206Z,-6.50
2022-12-13T02:43:45.439Z,-6.50
2022-12-13T02:46:18.540Z,-6.50
2022-12-13T02:48:48.247Z,-6.50
2022-12-13T02:51:18.995Z,-6.50
2022-12-13T02:53:48.140Z,-6.50
2022-12-13T02:56:16.687Z,-6.60
2022-12-13T02:58:49.956Z,-6.60
2022-12-13T03:01:40.219Z,-6.70
2022-12-13T03:04:26.210Z,-6.70
2022-12-13T03:07:02.186Z,-6.70
2022-12-13T03:09:42.169Z,-6.80
2022-12-13T03:12:41.053Z,-6.90
2022-12-13T03:15:27.235Z,-6.90
2022-12-13T03:18:02.416Z,-6.90
2022-12-13T03:20:31.554Z,-7.00
2022-12-13T03:23:00.483Z,-7.00
2022-12-13T03:25:33.026Z,-7.00
2022-12-13T03:28:02.776Z,-7.00
2022-12-13T03:30:32.608Z,-7.00
2022-12-13T03:33:03.002Z,-7.00
2022-12-13T03:35:35.031Z,-7.00
2022-12-13T03:38:23.021Z,-7.10
2022-12-13T03:40:55.265Z,-7.10
2022-12-13T03:43:24.118Z,-7.20
2022-12-13T03:45:53.188Z,-7.20
2022-12-13T03:48:24.116Z,-7.20
2022-12-13T03:50:54.232Z,-7.30
2022-12-13T03:53:33.261Z,-7.30
2022-12-13T03:56:02.979Z,-7.30
2022-12-13T03:58:35.917Z,-7.30
2022-12-13T04:01:07.834Z,-7.40
2022-12-13T04:03:38.693Z,-7.30
2022-12-13T04:06:07.726Z,-7.20
2022-12-13T04:08:37.504Z,-7.20
2022-12-13T04:11:26.963Z,-7.20
2022-12-13T04:13:55.134Z,-7.20
2022-12-13T04:16:25.239Z,-7.20
2022-12-13T04:18:55.096Z,-7.30
2022-12-13T04:21:23.626Z,-7.30
2022-12-13T04:23:51.991Z,-7.30
2022-12-13T04:26:20.444Z,-7.40
2022-12-13T04:28:54.296Z,-7.40
2022-12-13T04:31:24.171Z,-7.40
2022-12-13T04:33:55.168Z,-7.50
2022-12-13T04:36:31.910Z,-7.50
2022-12-13T04:39:02.157Z,-7.50
2022-12-13T04:41:34.503Z,-7.50
2022-12-13T04:44:04.030Z,-7.50
2022-12-13T04:46:32.973Z,-7.60
2022-12-13T04:49:02.835Z,-7.60
2022-12-13T04:51:31.724Z,-7.60
2022-12-13T04:54:23.210Z,-7.60
2022-12-13T04:56:49.538Z,-7.50
2022-12-13T04:59:18.193Z,-7.40
2022-12-13T05:01:46.586Z,-7.40
2022-12-13T05:04:16.516Z,-7.40
2022-12-13T05:06:44.898Z,-7.30
2022-12-13T05:09:13.272Z,-7.40
2022-12-13T05:11:45.715Z,-7.40
2022-12-13T05:14:14.639Z,-7.30
2022-12-13T05:16:52.036Z,-7.30
2022-12-13T05:19:22.143Z,-7.20
2022-12-13T05:22:01.281Z,-7.30
2022-12-13T05:24:31.201Z,-7.30
2022-12-13T05:26:59.996Z,-7.40
2022-12-13T05:29:28.787Z,-7.40
2022-12-13T05:31:57.353Z,-7.40
2022-12-13T05:34:27.196Z,-7.40
2022-12-13T05:36:55.716Z,-7.50
2022-12-13T05:39:27.737Z,-7.50
2022-12-13T05:42:01.422Z,-7.50
2022-12-13T05:44:31.934Z,-7.50
2022-12-13T05:47:02.004Z,-7.50
2022-12-13T05:49:33.203Z,-7.50
2022-12-13T05:52:02.697Z,-7.50
2022-12-13T05:54:31.123Z,-7.50
2022-12-13T05:57:00.172Z,-7.50
2022-12-13T05:59:29.290Z,-7.40
2022-12-13T06:01:57.813Z,-7.40
2022-12-13T06:04:26.029Z,-7.40
2022-12-13T06:06:56.319Z,-7.40
2022-12-13T06:09:24.806Z,-7.50
2022-12-13T06:12:00.962Z,-7.50
2022-12-13T06:14:29.966Z,-7.50
2022-12-13T06:16:58.821Z,-7.50
2022-12-13T06:19:27.113Z,-7.50
2022-12-13T06:21:57.485Z,-7.50
2022-12-13T06:24:27.512Z,-7.50
2022-12-13T06:26:56.242Z,-7.40
2022-12-13T06:29:25.982Z,-7.40
2022-12-13T06:32:01.927Z,-7.40
2022-12-13T06:34:33.876Z,-7.40
2022-12-13T06:37:05.023Z,-7.40
2022-12-13T06:39:33.770Z,-7.30
2022-12-13T06:42:03.453Z,-7.40
2022-12-13T06:44:31.924Z,-7.40
2022-12-13T06:47:11.183Z,-7.40
2022-12-13T06:49:43.185Z,-7.40
2022-12-13T06:52:14.460Z,-7.40
2022-12-13T06:54:43.611Z,-7.50
2022-12-13T06:57:12.950Z,-7.50
2022-12-13T06:59:41.949Z,-7.50
2022-12-13T07:02:24.798Z,-7.60
2022-12-13T07:04:55.564Z,-7.60
2022-12-13T07:07:27.706Z,-7.60
2022-12-13T07:09:56.034Z,-7.70
2022-12-13T07:12:25.249Z,-7.70
2022-12-13T07:14:55.348Z,-7.70
2022-12-13T07:17:32.969Z,-7.80
2022-12-13T07:20:04.962Z,-7.70
2022-12-13T07:22:36.847Z,-7.70
2022-12-13T07:25:07.895Z,-7.60
2022-12-13T07:28:02.488Z,-7.60
2022-12-13T07:30:32.783Z,-7.60
2022-12-13T07:33:02.216Z,-7.70
2022-12-13T07:35:31.305Z,-7.80
2022-12-13T07:38:07.507Z,-7.80
2022-12-13T07:40:36.499Z,-7.80
2022-12-13T07:43:05.609Z,-7.80
2022-12-13T07:45:34.426Z,-7.80
2022-12-13T07:48:08.725Z,-7.80
2022-12-13T07:50:38.115Z,-7.80
2022-12-13T07:53:09.402Z,-7.80
2022-12-13T07:55:38.874Z,-7.70
2022-12-13T07:58:08.940Z,-7.70
2022-12-13T08:00:37.595Z,-7.70
2022-12-13T08:03:06.764Z,-7.70
2022-12-13T08:05:38.545Z,-7.60
2022-12-13T08:08:11.987Z,-7.60
2022-12-13T08:10:40.661Z,-7.60
2022-12-13T08:13:09.214Z,-7.50
2022-12-13T08:15:37.593Z,-7.40
2022-12-13T08:18:06.592Z,-7.30
2022-12-13T08:20:34.975Z,-7.00
2022-12-13T08:23:03.314Z,-6.70
2022-12-13T08:25:33.356Z,-6.40
2022-12-13T08:28:02.657Z,-6.10
2022-12-13T08:30:32.625Z,-5.80
2022-12-13T08:33:05.256Z,-5.60
2022-12-13T08:35:35.096Z,-5.30
2022-12-13T08:38:03.966Z,-5.00
2022-12-13T08:40:34.287Z,-4.90
2022-12-13T08:43:02.858Z,-4.60
2022-12-13T08:45:32.254Z,-4.40
2022-12-13T08:48:01.303Z,-4.40
2022-12-13T08:50:31.204Z,-4.30
2022-12-13T08:52:59.884Z,-4.10
2022-12-13T08:55:31.910Z,-4.00
2022-12-13T08:58:08.457Z,-3.90
2022-12-13T09:00:37.795Z,-3.80
2022-12-13T09:03:10.043Z,-3.60
2022-12-13T09:05:39.855Z,-3.40
2022-12-13T09:08:24.842Z,-3.10
2022-12-13T09:11:00.937Z,-3.00
2022-12-13T09:13:33.112Z,-2.90
2022-12-13T09:16:14.230Z,-2.90
2022-12-13T09:18:43.564Z,-2.80
2022-12-13T09:21:14.497Z,-3.00
2022-12-13T09:23:50.836Z,-2.80
2022-12-13T09:26:19.257Z,-2.70
2022-12-13T09:28:55.425Z,-2.50
2022-12-13T09:31:24.033Z,-2.20
2022-12-13T09:33:53.642Z,-2.10
2022-12-13T09:36:22.938Z,-2.20
2022-12-13T09:38:53.543Z,-2.10
2022-12-13T09:41:28.800Z,-2.00
2022-12-13T09:44:02.316Z,-1.90
2022-12-13T09:46:34.262Z,-1.80
2022-12-13T09:49:15.972Z,-1.60
2022-12-13T09:52:21.477Z,-1.50
2022-12-13T09:54:48.636Z,-1.50
2022-12-13T09:57:30.904Z,-1.40
2022-12-13T10:00:04.630Z,-1.30
2022-12-13T10:02:40.393Z,-1.10
2022-12-13T10:05:22.580Z,-0.80
2022-12-13T10:07:55.563Z,-0.90
2022-12-13T10:10:24.498Z,-0.80
2022-12-13T10:12:59.203Z,-0.90
2022-12-13T10:15:31.666Z,-0.80
2022-12-13T10:18:04.004Z,-0.80
2022-12-13T10:20:33.006Z,-0.80
2022-12-13T10:23:31.296Z,-1.20
2022-12-13T10:25:54.760Z,-1.40
2022-12-13T10:28:34.437Z,-1.50
2022-12-13T10:31:04.764Z,-1.50
2022-12-13T10:33:36.438Z,-1.50
2022-12-13T10:36:08.920Z,-1.60
2022-12-13T10:38:41.090Z,-1.80
2022-12-13T10:41:34.338Z,-1.90
2022-12-13T10:44:22.630Z,-1.90
2022-12-13T10:47:04.009Z,-1.90
2022-12-13T10:49:40.309Z,-1.90
2022-12-13T10:52:30.951Z,-1.80
2022-12-13T10:55:02.343Z,-1.80
2022-12-13T10:57:30.938Z,-1.80
2022-12-13T10:59:59.264Z,-1.80
2022-12-13T11:02:36.539Z,-1.80
2022-12-13T11:05:26.694Z,-1.80
2022-12-13T11:08:00.681Z,-1.90
2022-12-13T11:10:30.746Z,-2.10
2022-12-13T11:13:03.779Z,-2.10
2022-12-13T11:15:35.163Z,-2.10
2022-12-13T11:18:06.982Z,-2.10
2022-12-13T11:20:37.763Z,-2.20
2022-12-13T11:23:08.854Z,-2.20
2022-12-13T11:25:41.964Z,-2.10
2022-12-13T11:28:27.973Z,-2.00
2022-12-13T11:31:08.066Z,-2.10
2022-12-13T11:33:49.114Z,-2.00
2022-12-13T11:36:32.205Z,-1.90
2022-12-13T11:39:14.347Z,-1.80
2022-12-13T11:41:51.636Z,-1.80
2022-12-13T11:44:25.354Z,-1.80
2022-12-13T11:46:57.203Z,-1.80
2022-12-13T11:49:36.199Z,-1.80
2022-12-13T11:52:10.957Z,-1.80
2022-12-13T11:54:48.083Z,-1.70
2022-12-13T11:57:26.104Z,-1.70
2022-12-13T12:00:02.296Z,-1.70
2022-12-13T12:02:35.617Z,-1.70
2022-12-13T12:05:09.764Z,-1.70
2022-12-13T12:08:05.205Z,-1.60
2022-12-13T12:10:34.655Z,-1.60
2022-12-13T12:13:08.716Z,-1.60
2022-12-13T12:15:42.523Z,-1.50
2022-12-13T12:18:16.641Z,-1.50
2022-12-13T12:21:02.483Z,-1.50
2022-12-13T12:23:48.393Z,-1.50
2022-12-13T12:26:23.012Z,-1.50
2022-12-13T12:29:16.285Z,-1.40
2022-12-13T12:31:56.844Z,-1.40
2022-12-13T12:34:36.293Z,-1.30
2022-12-13T12:37:16.285Z,-1.30
2022-12-13T12:40:04.763Z,-1.30
2022-12-13T12:43:14.513Z,-1.30
2022-12-13T12:45:57.737Z,-1.20
2022-12-13T12:49:02.774Z,-1.20
2022-12-13T12:51:38.351Z,-1.20
2022-12-13T12:54:31.852Z,-1.20
2022-12-13T12:57:07.899Z,-1.10
2022-12-13T12:59:46.483Z,-1.10
2022-12-13T13:02:22.906Z,-1.00
2022-12-13T13:04:59.176Z,-0.90
2022-12-13T13:07:32.009Z,-0.80
2022-12-13T13:10:16.593Z,-0.40
2022-12-13T13:13:12.349Z,0.20
2022-12-13T13:15:58.552Z,1.00
2022-12-13T13:18:51.818Z,1.60
2022-12-13T13:21:35.713Z,2.30
2022-12-13T13:24:14.723Z,2.70
2022-12-13T13:26:46.742Z,3.00
2022-12-13T13:29:35.611Z,3.40
2022-12-13T13:32:06.918Z,3.50
2022-12-13T13:34:37.152Z,3.30
2022-12-13T13:37:06.034Z,3.40
2022-12-13T13:39:57.416Z,3.50
2022-12-13T13:42:28.859Z,3.10
2022-12-13T13:45:03.440Z,2.90
2022-12-13T13:47:43.039Z,2.90
2022-12-13T13:50:48.976Z,2.90
2022-12-13T13:53:50.076Z,2.70
2022-12-13T13:56:44.694Z,2.70
2022-12-13T14:00:07.994Z,2.80
2022-12-13T14:03:22.515Z,3.10
2022-12-13T14:06:28.933Z,3.30
2022-12-13T14:09:45.533Z,2.90
2022-12-13T14:12:50.223Z,2.20
2022-12-13T14:16:01.983Z,2.00
2022-12-13T14:19:09.031Z,1.70
2022-12-13T14:21:58.692Z,1.40
2022-12-13T14:24:39.936Z,1.20
2022-12-13T14:27:20.989Z,0.90
2022-12-13T14:29:57.808Z,0.50
2022-12-13T14:32:29.379Z,0.20
2022-12-13T14:34:59.879Z,-0.10
2022-12-13T14:37:57.841Z,-0.50
2022-12-13T14:40:29.962Z,-0.80
2022-12-13T14:42:58.403Z,-1.10
2022-12-13T14:45:31.284Z,-1.30
2022-12-13T14:48:02.476Z,-1.50
2022-12-13T14:50:34.955Z,-1.80
2022-12-13T14:53:04.213Z,-1.90
2022-12-13T14:55:36.379Z,-2.10
2022-12-13T14:58:16.595Z,-2.20
2022-12-13T15:00:46.000Z,-2.30
2022-12-13T15:03:24.850Z,-2.50
2022-12-13T15:05:58.357Z,-2.50
2022-12-13T15:08:27.841Z,-2.60
2022-12-13T15:10:59.771Z,-2.70
2022-12-13T15:13:34.458Z,-2.80
2022-12-13T15:16:10.681Z,-2.90
2022-12-13T15:18:40.100Z,-2.90
2022-12-13T15:21:23.871Z,-3.00
2022-12-13T15:23:53.925Z,-3.10
2022-12-13T15:26:28.620Z,-3.20
2022-12-13T15:29:00.743Z,-3.20
2022-12-13T15:31:30.162Z,-3.30
2022-12-13T15:34:28.795Z,-3.30
2022-12-13T15:37:02.403Z,-3.40
2022-12-13T15:39:32.108Z,-3.50
2022-12-13T15:42:01.741Z,-3.60
2022-12-13T15:44:33.776Z,-3.60
2022-12-13T15:47:05.362Z,-3.70
2022-12-13T15:49:37.035Z,-3.80
2022-12-13T15:52:23.816Z,-3.80
2022-12-13T15:54:58.130Z,-3.90
2022-12-13T15:57:29.319Z,-4.00
2022-12-13T16:00:20.647Z,-4.00
2022-12-13T16:03:08.495Z,-4.10
2022-12-13T16:05:40.424Z,-4.10
2022-12-13T16:08:25.333Z,-4.20
2022-12-13T16:10:54.736Z,-4.20
2022-12-13T16:13:27.426Z,-4.30
2022-12-13T16:15:59.791Z,-4.30
2022-12-13T16:18:33.719Z,-4.40
2022-12-13T16:21:02.431Z,-4.40
2022-12-13T16:23:33.296Z,-4.50
2022-12-13T16:26:07.106Z,-4.50
2022-12-13T16:28:37.426Z,-4.60
2022-12-13T16:31:15.325Z,-4.60
2022-12-13T16:33:44.772Z,-4.70
2022-12-13T16:36:13.826Z,-4.70
2022-12-13T16:38:43.815Z,-4.70
2022-12-13T16:41:12.603Z,-4.80
2022-12-13T16:43:48.282Z,-4.80
2022-12-13T16:47:10.279Z,-4.80
2022-12-13T16:49:18.923Z,-4.90
2022-12-13T16:51:48.941Z,-4.90
2022-12-13T16:54:20.066Z,-4.90
2022-12-13T16:56:48.978Z,-5.00
2022-12-13T16:59:19.506Z,-5.00
2022-12-13T17:01:48.790Z,-5.10
2022-12-13T17:04:20.954Z,-5.10
2022-12-13T17:06:51.030Z,-5.10
2022-12-13T17:09:25.600Z,-5.10
2022-12-13T17:11:54.162Z,-5.10
2022-12-13T17:14:22.503Z,-5.10
2022-12-13T17:16:51.100Z,-5.20
2022-12-13T17:19:19.762Z,-5.20
2022-12-13T17:21:48.413Z,-5.20
2022-12-13T17:24:16.964Z,-5.30
2022-12-13T17:26:53.800Z,-5.30
2022-12-13T17:29:24.110Z,-5.30
2022-12-13T17:31:53.264Z,-5.40
2022-12-13T17:34:21.718Z,-5.40
2022-12-13T17:36:50.168Z,-5.40
2022-12-13T17:39:18.936Z,-5.40
2022-12-13T17:41:54.512Z,-5.40
2022-12-13T17:44:25.878Z,-5.50
2022-12-13T17:46:55.785Z,-5.50
2022-12-13T17:49:25.365Z,-5.50
2022-12-13T17:51:54.677Z,-5.50
2022-12-13T17:54:24.974Z,-5.50
2022-12-13T17:56:55.720Z,-5.50
2022-12-13T17:59:24.725Z,-5.50
2022-12-13T18:01:56.528Z,-5.50
2022-12-13T18:04:25.593Z,-5.50
2022-12-13T18:06:56.782Z,-5.50
2022-12-13T18:09:25.844Z,-5.50
2022-12-13T18:11:56.917Z,-5.50
2022-12-13T18:14:26.763Z,-5.50
2022-12-13T18:16:55.935Z,-5.50
2022-12-13T18:19:30.539Z,-5.50
2022-12-13T18:22:00.015Z,-5.50
2022-12-13T18:24:29.447Z,-5.50
2022-12-13T18:26:59.384Z,-5.50
2022-12-13T18:29:27.884Z,-5.60
2022-12-13T18:31:59.212Z,-5.60
2022-12-13T18:35:05.260Z,-5.60
2022-12-13T18:41:08.835Z,-5.60
2022-12-13T18:43:39.206Z,-5.60
2022-12-13T18:46:08.006Z,-5.60
2022-12-13T18:48:36.685Z,-5.70
2022-12-13T18:51:07.646Z,-5.70
2022-12-13T18:53:37.358Z,-5.70
2022-12-13T18:56:11.660Z,-5.70
2022-12-13T18:58:46.316Z,-5.70
2022-12-13T19:01:15.836Z,-5.70
2022-12-13T19:03:45.787Z,-5.70
2022-12-13T19:06:17.813Z,-5.70
2022-12-13T19:08:49.388Z,-5.70
2022-12-13T19:11:21.282Z,-5.70
2022-12-13T19:13:55.068Z,-5.70
2022-12-13T19:16:25.287Z,-5.70
2022-12-13T19:18:53.711Z,-5.70
2022-12-13T19:21:23.150Z,-5.80
2022-12-13T19:23:57.289Z,-5.80
2022-12-13T19:26:28.139Z,-5.80
2022-12-13T19:28:59.733Z,-5.80
2022-12-13T19:31:32.327Z,-5.80
2022-12-13T19:34:02.672Z,-5.80
2022-12-13T19:36:31.662Z,-5.90
2022-12-13T19:39:00.192Z,-5.90
2022-12-13T19:41:29.479Z,-5.90
2022-12-13T19:43:59.305Z,-5.90
2022-12-13T19:46:27.736Z,-5.90
2022-12-13T19:48:56.823Z,-5.90
2022-12-13T19:51:25.383Z,-5.90
2022-12-13T19:53:54.061Z,-5.90
2022-12-13T19:56:22.985Z,-5.90
2022-12-13T19:58:52.252Z,-6.00
2022-12-13T20:01:22.402Z,-6.00
2022-12-13T20:03:51.366Z,-6.00
2022-12-13T20:06:22.574Z,-5.90
2022-12-13T20:08:52.148Z,-6.00
2022-12-13T20:11:23.289Z,-6.00
2022-12-13T20:13:55.311Z,-6.00
2022-12-13T20:16:28.329Z,-6.00
2022-12-13T20:18:57.693Z,-5.90
2022-12-13T20:21:27.608Z,-5.90
2022-12-13T20:23:56.315Z,-5.90
2022-12-13T20:26:27.360Z,-6.00
2022-12-13T20:28:56.537Z,-6.00
2022-12-13T20:31:30.194Z,-5.90
2022-12-13T20:34:00.910Z,-5.90
2022-12-13T20:36:31.448Z,-5.90
2022-12-13T20:39:02.865Z,-5.90
2022-12-13T20:41:33.565Z,-5.90
2022-12-13T20:44:05.131Z,-5.90
2022-12-13T20:46:35.589Z,-5.90
2022-12-13T20:49:06.406Z,-5.90
2022-12-13T20:51:37.096Z,-5.80
2022-12-13T20:54:06.208Z,-5.80
2022-12-13T20:56:36.046Z,-5.80
2022-12-13T20:59:05.262Z,-5.80
2022-12-13T21:01:37.974Z,-5.80
2022-12-13T21:04:08.390Z,-5.80
2022-12-13T21:06:41.718Z,-5.80
2022-12-13T21:09:11.473Z,-5.80
2022-12-13T21:11:42.264Z,-5.70
2022-12-13T21:14:18.787Z,-5.70
2022-12-13T21:16:53.078Z,-5.70
2022-12-13T21:19:23.078Z,-5.70
2022-12-13T21:21:51.745Z,-5.70
2022-12-13T21:24:21.848Z,-5.70
2022-12-13T21:26:51.281Z,-5.60
2022-12-13T21:29:20.335Z,-5.60
2022-12-13T21:31:51.122Z,-5.60
2022-12-13T21:34:20.654Z,-5.60
2022-12-13T21:36:50.490Z,-5.60
2022-12-13T21:39:20.683Z,-5.60
2022-12-13T21:41:49.237Z,-5.60
2022-12-13T21:44:18.810Z,-5.60
2022-12-13T21:49:37.533Z,-5.60
2022-12-13T21:52:06.534Z,-5.60
2022-12-13T21:54:34.958Z,-5.60
2022-12-13T21:57:29.236Z,-5.60
2022-12-13T21:59:57.765Z,-5.60
2022-12-13T22:02:26.305Z,-5.60
2022-12-13T22:04:58.277Z,-5.50
2022-12-13T22:07:28.601Z,-5.50
2022-12-13T22:09:58.547Z,-5.50
2022-12-13T22:12:29.352Z,-5.60
2022-12-13T22:14:57.875Z,-5.60
2022-12-13T22:17:34.621Z,-5.60
2022-12-13T22:20:11.189Z,-5.60
2022-12-13T22:22:41.006Z,-5.60
2022-12-13T22:25:11.052Z,-5.60
2022-12-13T22:27:39.467Z,-5.60
2022-12-13T22:30:10.640Z,-5.50
2022-12-13T22:32:39.076Z,-5.50
2022-12-13T22:35:09.722Z,-5.50
2022-12-13T22:37:40.817Z,-5.50
2022-12-13T22:40:10.416Z,-5.50
2022-12-13T22:42:38.694Z,-5.50
2022-12-13T22:45:08.029Z,-5.50
2022-12-13T22:47:36.285Z,-5.50
2022-12-13T22:50:05.004Z,-5.50
2022-12-13T22:52:34.652Z,-5.50
2022-12-13T22:55:02.926Z,-5.50
2022-12-13T22:57:31.238Z,-5.50
2022-12-13T22:59:59.529Z,-5.50
2022-12-13T23:02:27.910Z,-5.50
2022-12-13T23:04:56.164Z,-5.50
2022-12-13T23:07:24.632Z,-5.50
2022-12-13T23:09:54.325Z,-5.50
2022-12-13T23:12:40.096Z,-5.50
2022-12-13T23:15:09.713Z,-5.50
2022-12-13T23:17:38.065Z,-5.50
2022-12-13T23:20:07.467Z,-5.50
2022-12-13T23:22:35.835Z,-5.50
2022-12-13T23:25:10.073Z,-5.50
2022-12-13T23:27:38.395Z,-5.50
2022-12-13T23:30:07.683Z,-5.50
2022-12-13T23:32:36.102Z,-5.50
2022-12-13T23:35:04.716Z,-5.40
2022-12-13T23:37:33.035Z,-5.40
2022-12-13T23:40:01.275Z,-5.40
2022-12-13T23:42:31.937Z,-5.40
2022-12-13T23:45:00.365Z,-5.40
2022-12-13T23:47:28.734Z,-5.40
2022-12-13T23:49:57.126Z,-5.40
2022-12-13T23:52:25.415Z,-5.50
2022-12-13T23:54:53.944Z,-5.50
2022-12-13T23:57:22.266Z,-5.50
2022-12-13T23:59:52.235Z,-5.50
